TIPO2: N. Fork Red River nr Tipton, OK

Data processed at Wed Jan 18 23:56:45 2017 Central Standard Time


All information presented herein is the property of the government of the United States of America and may be revised or deleted at any time without prior notice.
Dissemination of this information without the expressed written consent of the Public Affairs Office, Tulsa District U.S. Army Corps of Engineers is strictly prohibited.
These data are gathered electronically and, as presented, have not undergone any form of quality control. These data are not guaranteed to be valid or correct.
Go to home page.
Go to station list.
Go to station map.

Upstream stations:

Downstream station: Previous Day
Next Day
Current Day

Display graphics.
Display DCP transmissions.


    
    SHEF ID:       TIPO2     N. Fork Red River nr Tipton, OK
    STATION TYPE:  STREAM GAGE
    Regulation Limits:  Stage =   14.00, Flow =    6180
    
                    STAGE  RIV-FLOW   VOLTAGE  BAT-LOAD
                     FEET       CFS     VOLTS     VOLTS
                     GOES      GOES      GOES      GOES
       (Cen)
    01/18 01:00      8.16       751     12.73     12.57
    01/18 02:00      8.17       755     12.73     12.57
    01/18 03:00      8.18       760     12.65     12.57
    01/18 04:00      8.19       765     12.65     12.57
    01/18 05:00      8.19       765     12.65     12.49
    01/18 06:00      8.18       760     12.65     12.49
    01/18 07:00      8.18       760     12.65     12.49
    01/18 08:00      8.18       760     12.65     12.49
    01/18 09:00      8.18       757     12.65     12.49
    01/18 10:00      8.17       752     12.65     12.57
    01/18 11:00      8.16       748     12.89     12.65
    01/18 12:00      8.15       744     12.97     12.73
    01/18 13:00      8.14       739     12.97     12.81
    01/18 14:00      8.12       731     13.05     12.89
    01/18 15:00      8.10       722     13.05     12.89
    01/18 16:00      8.09       718     12.97     12.81
    01/18 17:00      8.07       709     12.89     12.73
    01/18 18:00      8.06       705     12.81      ----
    01/18 19:00      8.03       692     12.73     12.65
    01/18 20:00      8.02       684     12.73     12.57
    01/18 21:00      8.01       680     12.73     12.57
    01/18 22:00      7.99       671     12.65     12.57
    01/18 23:00      7.98       667     12.65     12.49
    01/19 00:00      ----      ----      ----      ----